Search for airport 
image banner adimage banner adimage banner ad
image banner ad

O88 - Rio Vista Muni

Located in Rio Vista, United States

ICAO - O88, IATA -

Data provided by Airmate  

General information

Coordinates: N38°11'36" W121°42'13"
Elevation is 23 feet MSL.
Magnetic variation is 14° East
View others Airports in California

Operational data

Special qualification required
Current time UTC:
Current local time:
Weather at : KSUU - Travis Afb ( 21 km )
METAR: KSUU 212158Z 03008KT 6SM HZ CLR 36/07 A3004 RMK AO2A SLP179 T03610072 $
TAF: TAF KSUU 211900Z 2119/2301 03009KT 9000 HZ SKC QNH3008INS BECMG 2123/2124 23010G15KT 9000 HZ SKC QNH3002INS BECMG 2203/2204 23012G18KT 9000 HZ SKC QNH3000INS BECMG 2215/2216 23015G25KT 9000 HZ SKC QNH3004INS TX39/2123Z TN14/2213Z
View NOTAMs / SUP AIP / TFR affecting this airport [VIEW]
Communications frequencies: [VIEW]

Runways:

RWY identifierQFULength (ft)Width (ft)SurfaceLDA (ft)
0786°419975ASPH
25266°419975ASPH
15160°219960ASPH
33340°219960ASPH

Airport contact information

Address: Rio Vista United States

Other aviation service providers

Flight schools

Travis Aero Club

Travis Aero Club

Satellite view of O88